sensor_id;sensor_type;location;lat;lon;timestamp;temperature;humidity
53599;DHT22;39485;45.702;11.364;2023-02-01T00:01:54;1.40;99.90
53599;DHT22;39485;45.702;11.364;2023-02-01T00:04:20;1.40;99.90
53599;DHT22;39485;45.702;11.364;2023-02-01T00:06:46;1.40;99.90
53599;DHT22;39485;45.702;11.364;2023-02-01T00:09:11;1.40;99.90
53599;DHT22;39485;45.702;11.364;2023-02-01T00:11:37;1.40;99.90
53599;DHT22;39485;45.702;11.364;2023-02-01T00:14:03;1.40;99.90
53599;DHT22;39485;45.702;11.364;2023-02-01T00:16:30;1.40;99.90
53599;DHT22;39485;45.702;11.364;2023-02-01T00:19:02;1.40;99.90
53599;DHT22;39485;45.702;11.364;2023-02-01T00:21:29;1.40;99.90
53599;DHT22;39485;45.702;11.364;2023-02-01T00:23:55;1.40;99.90
53599;DHT22;39485;45.702;11.364;2023-02-01T00:29:06;1.40;99.90
53599;DHT22;39485;45.702;11.364;2023-02-01T00:31:32;1.40;99.90
53599;DHT22;39485;45.702;11.364;2023-02-01T00:33:58;1.30;99.90
53599;DHT22;39485;45.702;11.364;2023-02-01T00:36:24;1.30;99.90
53599;DHT22;39485;45.702;11.364;2023-02-01T00:38:49;1.30;99.90
53599;DHT22;39485;45.702;11.364;2023-02-01T00:41:18;1.30;99.90
53599;DHT22;39485;45.702;11.364;2023-02-01T00:43:44;1.30;99.90
53599;DHT22;39485;45.702;11.364;2023-02-01T00:46:11;1.30;99.90
53599;DHT22;39485;45.702;11.364;2023-02-01T00:48:37;1.30;99.90
53599;DHT22;39485;45.702;11.364;2023-02-01T00:51:06;1.40;99.90
53599;DHT22;39485;45.702;11.364;2023-02-01T00:53:32;1.50;99.90
53599;DHT22;39485;45.702;11.364;2023-02-01T00:55:58;1.50;99.90
53599;DHT22;39485;45.702;11.364;2023-02-01T00:58:24;1.60;99.90
53599;DHT22;39485;45.702;11.364;2023-02-01T01:01:12;1.60;99.90
53599;DHT22;39485;45.702;11.364;2023-02-01T01:03:42;1.60;99.90
53599;DHT22;39485;45.702;11.364;2023-02-01T01:06:12;1.60;99.90
53599;DHT22;39485;45.702;11.364;2023-02-01T01:08:38;1.60;99.90
53599;DHT22;39485;45.702;11.364;2023-02-01T01:11:13;1.60;99.90
53599;DHT22;39485;45.702;11.364;2023-02-01T01:13:39;1.60;99.90
53599;DHT22;39485;45.702;11.364;2023-02-01T01:16:06;1.50;99.90
53599;DHT22;39485;45.702;11.364;2023-02-01T01:18:33;1.50;99.90
53599;DHT22;39485;45.702;11.364;2023-02-01T01:20:59;1.50;99.90
53599;DHT22;39485;45.702;11.364;2023-02-01T01:23:25;1.50;99.90
53599;DHT22;39485;45.702;11.364;2023-02-01T01:25:51;1.50;99.90
53599;DHT22;39485;45.702;11.364;2023-02-01T01:28:18;1.50;99.90
53599;DHT22;39485;45.702;11.364;2023-02-01T01:30:44;1.40;99.90
53599;DHT22;39485;45.702;11.364;2023-02-01T01:33:10;1.40;99.90
53599;DHT22;39485;45.702;11.364;2023-02-01T01:35:35;1.40;99.90
53599;DHT22;39485;45.702;11.364;2023-02-01T01:38:02;1.40;99.90
53599;DHT22;39485;45.702;11.364;2023-02-01T01:40:28;1.40;99.90
53599;DHT22;39485;45.702;11.364;2023-02-01T01:42:55;1.40;99.90
53599;DHT22;39485;45.702;11.364;2023-02-01T01:45:25;1.40;99.90
53599;DHT22;39485;45.702;11.364;2023-02-01T01:47:57;1.40;99.90
53599;DHT22;39485;45.702;11.364;2023-02-01T01:50:41;1.40;99.90
53599;DHT22;39485;45.702;11.364;2023-02-01T01:53:09;1.40;99.90
53599;DHT22;39485;45.702;11.364;2023-02-01T01:55:40;1.40;99.90
53599;DHT22;39485;45.702;11.364;2023-02-01T01:58:12;1.40;99.90
53599;DHT22;39485;45.702;11.364;2023-02-01T02:00:40;1.40;99.90
53599;DHT22;39485;45.702;11.364;2023-02-01T02:03:18;1.40;99.90
53599;DHT22;39485;45.702;11.364;2023-02-01T02:05:45;1.40;99.90
53599;DHT22;39485;45.702;11.364;2023-02-01T02:08:12;1.40;99.90
53599;DHT22;39485;45.702;11.364;2023-02-01T02:10:38;1.40;99.90
53599;DHT22;39485;45.702;11.364;2023-02-01T02:13:23;1.40;99.90
53599;DHT22;39485;45.702;11.364;2023-02-01T02:16:27;1.40;99.90
53599;DHT22;39485;45.702;11.364;2023-02-01T02:19:09;1.40;99.90
53599;DHT22;39485;45.702;11.364;2023-02-01T02:22:14;1.40;99.90
53599;DHT22;39485;45.702;11.364;2023-02-01T02:27:55;1.40;99.90
53599;DHT22;39485;45.702;11.364;2023-02-01T02:30:40;1.30;99.90
53599;DHT22;39485;45.702;11.364;2023-02-01T02:36:05;1.30;99.90
53599;DHT22;39485;45.702;11.364;2023-02-01T02:41:15;1.30;99.90
53599;DHT22;39485;45.702;11.364;2023-02-01T02:44:21;1.30;99.90
53599;DHT22;39485;45.702;11.364;2023-02-01T02:47:21;1.30;99.90
53599;DHT22;39485;45.702;11.364;2023-02-01T02:53:22;1.30;99.90
53599;DHT22;39485;45.702;11.364;2023-02-01T02:56:09;1.20;99.90
53599;DHT22;39485;45.702;11.364;2023-02-01T02:58:54;1.20;99.90
53599;DHT22;39485;45.702;11.364;2023-02-01T03:01:40;1.20;99.90
53599;DHT22;39485;45.702;11.364;2023-02-01T03:04:24;1.20;99.90
53599;DHT22;39485;45.702;11.364;2023-02-01T03:06:52;1.20;99.90
53599;DHT22;39485;45.702;11.364;2023-02-01T03:09:31;1.20;99.90
53599;DHT22;39485;45.702;11.364;2023-02-01T03:12:01;1.20;99.90
53599;DHT22;39485;45.702;11.364;2023-02-01T03:14:50;1.20;99.90
53599;DHT22;39485;45.702;11.364;2023-02-01T03:17:21;1.20;99.90
53599;DHT22;39485;45.702;11.364;2023-02-01T03:19:51;1.10;99.90
53599;DHT22;39485;45.702;11.364;2023-02-01T03:22:21;1.10;99.90
53599;DHT22;39485;45.702;11.364;2023-02-01T03:24:53;1.10;99.90
53599;DHT22;39485;45.702;11.364;2023-02-01T03:32:39;1.10;99.90
53599;DHT22;39485;45.702;11.364;2023-02-01T03:35:48;1.10;99.90
53599;DHT22;39485;45.702;11.364;2023-02-01T03:41:34;1.10;99.90
53599;DHT22;39485;45.702;11.364;2023-02-01T03:44:13;1.10;99.90
53599;DHT22;39485;45.702;11.364;2023-02-01T03:46:47;1.00;99.90
53599;DHT22;39485;45.702;11.364;2023-02-01T03:49:20;1.00;99.90
53599;DHT22;39485;45.702;11.364;2023-02-01T03:51:49;1.00;99.90
53599;DHT22;39485;45.702;11.364;2023-02-01T03:54:17;1.10;99.90
53599;DHT22;39485;45.702;11.364;2023-02-01T03:56:45;1.10;99.90
53599;DHT22;39485;45.702;11.364;2023-02-01T03:59:13;1.00;99.90
53599;DHT22;39485;45.702;11.364;2023-02-01T04:01:39;1.00;99.90
53599;DHT22;39485;45.702;11.364;2023-02-01T04:04:04;1.00;99.90
53599;DHT22;39485;45.702;11.364;2023-02-01T04:06:30;1.00;99.90
53599;DHT22;39485;45.702;11.364;2023-02-01T04:08:56;1.00;99.90
53599;DHT22;39485;45.702;11.364;2023-02-01T04:11:21;1.00;99.90
53599;DHT22;39485;45.702;11.364;2023-02-01T04:13:47;1.00;99.90
53599;DHT22;39485;45.702;11.364;2023-02-01T04:16:13;1.00;99.90
53599;DHT22;39485;45.702;11.364;2023-02-01T04:18:38;1.00;99.90
53599;DHT22;39485;45.702;11.364;2023-02-01T04:21:04;1.10;99.90
53599;DHT22;39485;45.702;11.364;2023-02-01T04:23:30;1.10;99.90
53599;DHT22;39485;45.702;11.364;2023-02-01T04:26:01;1.10;99.90
53599;DHT22;39485;45.702;11.364;2023-02-01T04:28:27;1.10;99.90
53599;DHT22;39485;45.702;11.364;2023-02-01T04:30:53;1.10;99.90
53599;DHT22;39485;45.702;11.364;2023-02-01T04:33:19;1.00;99.90
53599;DHT22;39485;45.702;11.364;2023-02-01T04:35:44;1.00;99.90
53599;DHT22;39485;45.702;11.364;2023-02-01T04:38:10;1.00;99.90
53599;DHT22;39485;45.702;11.364;2023-02-01T04:40:35;0.90;99.90
53599;DHT22;39485;45.702;11.364;2023-02-01T04:43:03;0.90;99.90
53599;DHT22;39485;45.702;11.364;2023-02-01T04:45:29;0.90;99.90
53599;DHT22;39485;45.702;11.364;2023-02-01T04:47:55;0.90;99.90
53599;DHT22;39485;45.702;11.364;2023-02-01T04:50:21;0.80;99.90
53599;DHT22;39485;45.702;11.364;2023-02-01T04:52:47;0.80;99.90
53599;DHT22;39485;45.702;11.364;2023-02-01T04:55:13;0.80;99.90
53599;DHT22;39485;45.702;11.364;2023-02-01T04:57:39;0.90;99.90
53599;DHT22;39485;45.702;11.364;2023-02-01T05:00:07;0.80;99.90
53599;DHT22;39485;45.702;11.364;2023-02-01T05:02:34;0.80;99.90
53599;DHT22;39485;45.702;11.364;2023-02-01T05:05:00;0.90;99.90
53599;DHT22;39485;45.702;11.364;2023-02-01T05:07:26;0.90;99.90
53599;DHT22;39485;45.702;11.364;2023-02-01T05:09:52;0.90;99.90
53599;DHT22;39485;45.702;11.364;2023-02-01T05:12:17;0.90;99.90
53599;DHT22;39485;45.702;11.364;2023-02-01T05:15:02;0.90;99.90
53599;DHT22;39485;45.702;11.364;2023-02-01T05:17:28;0.90;99.90
53599;DHT22;39485;45.702;11.364;2023-02-01T05:19:53;0.90;99.90
53599;DHT22;39485;45.702;11.364;2023-02-01T05:22:19;0.90;99.90
53599;DHT22;39485;45.702;11.364;2023-02-01T05:24:45;0.90;99.90
53599;DHT22;39485;45.702;11.364;2023-02-01T05:27:10;0.90;99.90
53599;DHT22;39485;45.702;11.364;2023-02-01T05:29:36;0.90;99.90
53599;DHT22;39485;45.702;11.364;2023-02-01T05:32:02;0.90;99.90
53599;DHT22;39485;45.702;11.364;2023-02-01T05:34:27;0.90;99.90
53599;DHT22;39485;45.702;11.364;2023-02-01T05:36:53;0.90;99.90
53599;DHT22;39485;45.702;11.364;2023-02-01T05:39:19;0.90;99.90
53599;DHT22;39485;45.702;11.364;2023-02-01T05:41:45;0.80;99.90
53599;DHT22;39485;45.702;11.364;2023-02-01T05:44:11;0.80;99.90
53599;DHT22;39485;45.702;11.364;2023-02-01T05:46:36;0.80;99.90
53599;DHT22;39485;45.702;11.364;2023-02-01T05:49:03;0.80;99.90
53599;DHT22;39485;45.702;11.364;2023-02-01T05:51:28;0.70;99.90
53599;DHT22;39485;45.702;11.364;2023-02-01T05:53:54;0.80;99.90
53599;DHT22;39485;45.702;11.364;2023-02-01T05:56:20;0.70;99.90
53599;DHT22;39485;45.702;11.364;2023-02-01T05:58:45;0.70;99.90
53599;DHT22;39485;45.702;11.364;2023-02-01T06:01:11;0.80;99.90
53599;DHT22;39485;45.702;11.364;2023-02-01T06:03:37;0.80;99.90
53599;DHT22;39485;45.702;11.364;2023-02-01T06:06:03;0.70;99.90
53599;DHT22;39485;45.702;11.364;2023-02-01T06:08:29;0.70;99.90
53599;DHT22;39485;45.702;11.364;2023-02-01T06:11:03;0.70;99.90
53599;DHT22;39485;45.702;11.364;2023-02-01T06:13:30;0.70;99.90
53599;DHT22;39485;45.702;11.364;2023-02-01T06:15:56;0.70;99.90
53599;DHT22;39485;45.702;11.364;2023-02-01T06:18:23;0.70;99.90
53599;DHT22;39485;45.702;11.364;2023-02-01T06:20:53;0.70;99.90
53599;DHT22;39485;45.702;11.364;2023-02-01T06:23:19;0.70;99.90
53599;DHT22;39485;45.702;11.364;2023-02-01T06:25:44;0.70;99.90
53599;DHT22;39485;45.702;11.364;2023-02-01T06:28:10;0.70;99.90
53599;DHT22;39485;45.702;11.364;2023-02-01T06:30:36;0.70;99.90
53599;DHT22;39485;45.702;11.364;2023-02-01T06:33:02;0.70;99.90
53599;DHT22;39485;45.702;11.364;2023-02-01T06:35:27;0.70;99.90
53599;DHT22;39485;45.702;11.364;2023-02-01T06:37:53;0.70;99.90
53599;DHT22;39485;45.702;11.364;2023-02-01T06:40:19;0.70;99.90
53599;DHT22;39485;45.702;11.364;2023-02-01T06:42:44;0.70;99.90
53599;DHT22;39485;45.702;11.364;2023-02-01T06:45:10;0.60;99.90
53599;DHT22;39485;45.702;11.364;2023-02-01T06:47:36;0.70;99.90
53599;DHT22;39485;45.702;11.364;2023-02-01T06:50:01;0.60;99.90
53599;DHT22;39485;45.702;11.364;2023-02-01T06:52:27;0.60;99.90
53599;DHT22;39485;45.702;11.364;2023-02-01T06:54:53;0.60;99.90
53599;DHT22;39485;45.702;11.364;2023-02-01T06:57:18;0.60;99.90
53599;DHT22;39485;45.702;11.364;2023-02-01T06:59:44;0.60;99.90
53599;DHT22;39485;45.702;11.364;2023-02-01T07:02:12;0.60;99.90
53599;DHT22;39485;45.702;11.364;2023-02-01T07:04:38;0.70;99.90
53599;DHT22;39485;45.702;11.364;2023-02-01T07:07:04;0.70;99.90
53599;DHT22;39485;45.702;11.364;2023-02-01T07:09:29;0.70;99.90
53599;DHT22;39485;45.702;11.364;2023-02-01T07:11:55;0.70;99.90
53599;DHT22;39485;45.702;11.364;2023-02-01T07:14:21;0.70;99.90
53599;DHT22;39485;45.702;11.364;2023-02-01T07:16:46;0.80;99.90
53599;DHT22;39485;45.702;11.364;2023-02-01T07:19:12;0.80;99.90
53599;DHT22;39485;45.702;11.364;2023-02-01T07:21:38;0.80;99.90
53599;DHT22;39485;45.702;11.364;2023-02-01T07:24:03;0.90;99.90
53599;DHT22;39485;45.702;11.364;2023-02-01T07:26:29;0.90;99.90
53599;DHT22;39485;45.702;11.364;2023-02-01T07:28:55;0.90;99.90
53599;DHT22;39485;45.702;11.364;2023-02-01T07:31:21;0.90;99.90
53599;DHT22;39485;45.702;11.364;2023-02-01T07:33:50;0.90;99.90
53599;DHT22;39485;45.702;11.364;2023-02-01T07:36:20;1.00;99.90
53599;DHT22;39485;45.702;11.364;2023-02-01T07:38:46;1.00;99.90
53599;DHT22;39485;45.702;11.364;2023-02-01T07:41:13;1.10;99.90
53599;DHT22;39485;45.702;11.364;2023-02-01T07:43:38;1.10;99.90
53599;DHT22;39485;45.702;11.364;2023-02-01T07:46:04;1.20;99.90
53599;DHT22;39485;45.702;11.364;2023-02-01T07:48:31;1.20;99.90
53599;DHT22;39485;45.702;11.364;2023-02-01T07:51:02;1.30;99.90
53599;DHT22;39485;45.702;11.364;2023-02-01T07:53:29;1.30;99.90
53599;DHT22;39485;45.702;11.364;2023-02-01T07:55:54;1.40;99.90
53599;DHT22;39485;45.702;11.364;2023-02-01T07:58:22;1.50;99.90
53599;DHT22;39485;45.702;11.364;2023-02-01T08:00:47;1.50;99.90
53599;DHT22;39485;45.702;11.364;2023-02-01T08:03:32;1.60;99.90
53599;DHT22;39485;45.702;11.364;2023-02-01T08:09:41;1.80;99.90
53599;DHT22;39485;45.702;11.364;2023-02-01T08:12:09;1.90;99.90
53599;DHT22;39485;45.702;11.364;2023-02-01T08:14:50;2.00;99.90
53599;DHT22;39485;45.702;11.364;2023-02-01T08:17:24;2.00;99.90
53599;DHT22;39485;45.702;11.364;2023-02-01T08:19:54;2.10;99.90
53599;DHT22;39485;45.702;11.364;2023-02-01T08:22:22;2.20;99.90
53599;DHT22;39485;45.702;11.364;2023-02-01T08:24:59;2.20;99.90
53599;DHT22;39485;45.702;11.364;2023-02-01T08:27:35;2.30;99.90
53599;DHT22;39485;45.702;11.364;2023-02-01T08:30:24;2.30;99.90
53599;DHT22;39485;45.702;11.364;2023-02-01T08:32:50;2.40;99.90
53599;DHT22;39485;45.702;11.364;2023-02-01T09:57:08;4.60;99.90
53599;DHT22;39485;45.702;11.364;2023-02-01T10:02:43;4.70;99.90
53599;DHT22;39485;45.702;11.364;2023-02-01T10:41:33;5.50;99.90
53599;DHT22;39485;45.702;11.364;2023-02-01T10:44:44;5.50;99.90
53599;DHT22;39485;45.702;11.364;2023-02-01T10:47:23;5.60;99.90
53599;DHT22;39485;45.702;11.364;2023-02-01T10:50:19;5.70;99.90
53599;DHT22;39485;45.702;11.364;2023-02-01T11:07:16;5.90;99.90
53599;DHT22;39485;45.702;11.364;2023-02-01T11:09:54;6.00;99.90
53599;DHT22;39485;45.702;11.364;2023-02-01T11:12:33;6.10;99.90
53599;DHT22;39485;45.702;11.364;2023-02-01T11:15:20;6.10;99.90
53599;DHT22;39485;45.702;11.364;2023-02-01T11:17:48;6.20;99.90
53599;DHT22;39485;45.702;11.364;2023-02-01T11:20:19;6.30;99.90
53599;DHT22;39485;45.702;11.364;2023-02-01T11:22:46;6.30;99.90
53599;DHT22;39485;45.702;11.364;2023-02-01T11:25:16;6.40;99.90
53599;DHT22;39485;45.702;11.364;2023-02-01T11:27:43;6.40;99.90
53599;DHT22;39485;45.702;11.364;2023-02-01T11:30:16;6.50;99.90
53599;DHT22;39485;45.702;11.364;2023-02-01T11:32:44;6.50;99.90
53599;DHT22;39485;45.702;11.364;2023-02-01T11:35:15;6.50;99.90
53599;DHT22;39485;45.702;11.364;2023-02-01T11:37:43;6.60;99.90
53599;DHT22;39485;45.702;11.364;2023-02-01T11:43:35;6.70;99.90
53599;DHT22;39485;45.702;11.364;2023-02-01T11:45:43;6.70;99.90
53599;DHT22;39485;45.702;11.364;2023-02-01T11:48:18;6.70;99.90
53599;DHT22;39485;45.702;11.364;2023-02-01T11:56:33;6.90;99.90
53599;DHT22;39485;45.702;11.364;2023-02-01T12:05:21;7.00;99.90
53599;DHT22;39485;45.702;11.364;2023-02-01T12:10:53;7.00;99.90
53599;DHT22;39485;45.702;11.364;2023-02-01T12:13:46;7.10;99.90
53599;DHT22;39485;45.702;11.364;2023-02-01T12:22:29;7.20;99.90
53599;DHT22;39485;45.702;11.364;2023-02-01T12:25:54;7.20;99.90
53599;DHT22;39485;45.702;11.364;2023-02-01T12:28:04;7.20;99.90
53599;DHT22;39485;45.702;11.364;2023-02-01T12:33:52;7.30;99.90
53599;DHT22;39485;45.702;11.364;2023-02-01T12:39:20;7.40;99.90
53599;DHT22;39485;45.702;11.364;2023-02-01T12:41:58;7.50;99.90
53599;DHT22;39485;45.702;11.364;2023-02-01T12:44:43;7.60;99.90
53599;DHT22;39485;45.702;11.364;2023-02-01T12:47:35;7.60;99.90
53599;DHT22;39485;45.702;11.364;2023-02-01T12:50:39;7.70;99.90
53599;DHT22;39485;45.702;11.364;2023-02-01T12:53:14;7.70;99.90
53599;DHT22;39485;45.702;11.364;2023-02-01T12:55:49;7.70;99.90
53599;DHT22;39485;45.702;11.364;2023-02-01T12:58:29;7.70;99.90
53599;DHT22;39485;45.702;11.364;2023-02-01T13:01:05;7.80;99.90
53599;DHT22;39485;45.702;11.364;2023-02-01T13:03:42;7.80;99.90
53599;DHT22;39485;45.702;11.364;2023-02-01T13:06:12;7.90;99.90
53599;DHT22;39485;45.702;11.364;2023-02-01T13:08:46;7.90;99.90
53599;DHT22;39485;45.702;11.364;2023-02-01T13:11:20;7.90;99.90
53599;DHT22;39485;45.702;11.364;2023-02-01T13:16:35;8.00;99.90
53599;DHT22;39485;45.702;11.364;2023-02-01T13:19:05;8.00;99.90
53599;DHT22;39485;45.702;11.364;2023-02-01T13:21:34;8.00;99.90
53599;DHT22;39485;45.702;11.364;2023-02-01T13:24:02;8.00;99.90
53599;DHT22;39485;45.702;11.364;2023-02-01T13:26:28;8.00;99.90
53599;DHT22;39485;45.702;11.364;2023-02-01T13:29:01;8.00;99.90
53599;DHT22;39485;45.702;11.364;2023-02-01T13:31:56;8.00;99.90
53599;DHT22;39485;45.702;11.364;2023-02-01T13:39:43;8.10;99.90
53599;DHT22;39485;45.702;11.364;2023-02-01T13:42:29;8.20;99.90
53599;DHT22;39485;45.702;11.364;2023-02-01T13:45:04;8.20;99.90
53599;DHT22;39485;45.702;11.364;2023-02-01T13:47:39;8.20;99.90
53599;DHT22;39485;45.702;11.364;2023-02-01T13:52:42;8.20;99.90
53599;DHT22;39485;45.702;11.364;2023-02-01T13:55:36;8.30;99.90
53599;DHT22;39485;45.702;11.364;2023-02-01T13:58:06;8.30;99.90
53599;DHT22;39485;45.702;11.364;2023-02-01T14:00:37;8.30;99.90
53599;DHT22;39485;45.702;11.364;2023-02-01T14:03:08;8.30;99.90
53599;DHT22;39485;45.702;11.364;2023-02-01T14:13:21;8.30;99.90
53599;DHT22;39485;45.702;11.364;2023-02-01T14:29:01;8.40;99.90
53599;DHT22;39485;45.702;11.364;2023-02-01T14:34:14;8.40;99.90
53599;DHT22;39485;45.702;11.364;2023-02-01T14:36:47;8.30;99.90
53599;DHT22;39485;45.702;11.364;2023-02-01T14:42:00;8.30;99.90
53599;DHT22;39485;45.702;11.364;2023-02-01T14:44:29;8.30;99.90
53599;DHT22;39485;45.702;11.364;2023-02-01T14:50:02;8.20;99.90
53599;DHT22;39485;45.702;11.364;2023-02-01T14:52:36;8.20;99.90
53599;DHT22;39485;45.702;11.364;2023-02-01T14:55:35;8.20;99.90
53599;DHT22;39485;45.702;11.364;2023-02-01T14:58:05;8.20;99.90
53599;DHT22;39485;45.702;11.364;2023-02-01T15:00:31;8.10;99.90
53599;DHT22;39485;45.702;11.364;2023-02-01T15:03:34;8.10;99.90
53599;DHT22;39485;45.702;11.364;2023-02-01T15:06:01;8.10;99.90
53599;DHT22;39485;45.702;11.364;2023-02-01T15:08:35;8.00;99.90
53599;DHT22;39485;45.702;11.364;2023-02-01T15:11:11;8.00;99.90
53599;DHT22;39485;45.702;11.364;2023-02-01T15:13:39;7.90;99.90
53599;DHT22;39485;45.702;11.364;2023-02-01T15:18:31;7.80;99.90
53599;DHT22;39485;45.702;11.364;2023-02-01T15:21:00;7.80;99.90
53599;DHT22;39485;45.702;11.364;2023-02-01T15:23:26;7.80;99.90
53599;DHT22;39485;45.702;11.364;2023-02-01T15:25:53;7.70;99.90
53599;DHT22;39485;45.702;11.364;2023-02-01T15:28:19;7.70;99.90
53599;DHT22;39485;45.702;11.364;2023-02-01T15:30:53;7.60;99.90
53599;DHT22;39485;45.702;11.364;2023-02-01T15:33:19;7.60;99.90
53599;DHT22;39485;45.702;11.364;2023-02-01T15:35:49;7.50;99.90
53599;DHT22;39485;45.702;11.364;2023-02-01T16:23:47;5.90;99.90
53599;DHT22;39485;45.702;11.364;2023-02-01T16:40:04;5.40;99.90
53599;DHT22;39485;45.702;11.364;2023-02-01T16:42:30;5.30;99.90
53599;DHT22;39485;45.702;11.364;2023-02-01T16:44:56;5.20;99.90
53599;DHT22;39485;45.702;11.364;2023-02-01T16:47:22;5.10;99.90
53599;DHT22;39485;45.702;11.364;2023-02-01T16:49:48;5.00;99.90
53599;DHT22;39485;45.702;11.364;2023-02-01T16:52:18;5.00;99.90
53599;DHT22;39485;45.702;11.364;2023-02-01T16:54:45;4.90;99.90
53599;DHT22;39485;45.702;11.364;2023-02-01T16:57:12;4.90;99.90
53599;DHT22;39485;45.702;11.364;2023-02-01T16:59:39;4.80;99.90
53599;DHT22;39485;45.702;11.364;2023-02-01T17:02:08;4.80;99.90
53599;DHT22;39485;45.702;11.364;2023-02-01T17:04:35;4.70;99.90
53599;DHT22;39485;45.702;11.364;2023-02-01T17:07:01;4.60;99.90
53599;DHT22;39485;45.702;11.364;2023-02-01T17:09:35;4.60;99.90
53599;DHT22;39485;45.702;11.364;2023-02-01T17:12:02;4.50;99.90
53599;DHT22;39485;45.702;11.364;2023-02-01T17:14:31;4.50;99.90
53599;DHT22;39485;45.702;11.364;2023-02-01T17:16:57;4.40;99.90
53599;DHT22;39485;45.702;11.364;2023-02-01T17:19:23;4.40;99.90
53599;DHT22;39485;45.702;11.364;2023-02-01T17:21:54;4.30;99.90
53599;DHT22;39485;45.702;11.364;2023-02-01T17:24:31;4.30;99.90
53599;DHT22;39485;45.702;11.364;2023-02-01T17:26:57;4.20;99.90
53599;DHT22;39485;45.702;11.364;2023-02-01T17:29:23;4.20;99.90
53599;DHT22;39485;45.702;11.364;2023-02-01T17:31:52;4.10;99.90
53599;DHT22;39485;45.702;11.364;2023-02-01T17:34:19;4.10;99.90
53599;DHT22;39485;45.702;11.364;2023-02-01T17:36:46;4.00;99.90
53599;DHT22;39485;45.702;11.364;2023-02-01T17:39:13;4.00;99.90
53599;DHT22;39485;45.702;11.364;2023-02-01T17:41:59;3.90;99.90
53599;DHT22;39485;45.702;11.364;2023-02-01T17:44:25;3.90;99.90
53599;DHT22;39485;45.702;11.364;2023-02-01T17:46:51;3.90;99.90
53599;DHT22;39485;45.702;11.364;2023-02-01T17:49:16;3.90;99.90
53599;DHT22;39485;45.702;11.364;2023-02-01T17:51:42;3.90;99.90
53599;DHT22;39485;45.702;11.364;2023-02-01T17:54:14;3.90;99.90
53599;DHT22;39485;45.702;11.364;2023-02-01T17:56:41;3.80;99.90
53599;DHT22;39485;45.702;11.364;2023-02-01T17:59:07;3.80;99.90
53599;DHT22;39485;45.702;11.364;2023-02-01T18:01:33;3.80;99.90
53599;DHT22;39485;45.702;11.364;2023-02-01T18:03:58;3.80;99.90
53599;DHT22;39485;45.702;11.364;2023-02-01T18:06:25;3.70;99.90
53599;DHT22;39485;45.702;11.364;2023-02-01T18:08:52;3.70;99.90
53599;DHT22;39485;45.702;11.364;2023-02-01T18:11:23;3.60;99.90
53599;DHT22;39485;45.702;11.364;2023-02-01T18:13:51;3.60;99.90
53599;DHT22;39485;45.702;11.364;2023-02-01T18:16:24;3.60;99.90
53599;DHT22;39485;45.702;11.364;2023-02-01T18:18:50;3.60;99.90
53599;DHT22;39485;45.702;11.364;2023-02-01T18:21:18;3.50;99.90
53599;DHT22;39485;45.702;11.364;2023-02-01T18:23:44;3.50;99.90
53599;DHT22;39485;45.702;11.364;2023-02-01T18:26:12;3.50;99.90
53599;DHT22;39485;45.702;11.364;2023-02-01T18:28:38;3.40;99.90
53599;DHT22;39485;45.702;11.364;2023-02-01T18:31:04;3.40;99.90
53599;DHT22;39485;45.702;11.364;2023-02-01T18:33:30;3.30;99.90
53599;DHT22;39485;45.702;11.364;2023-02-01T18:35:56;3.30;99.90
53599;DHT22;39485;45.702;11.364;2023-02-01T18:38:22;3.20;99.90
53599;DHT22;39485;45.702;11.364;2023-02-01T18:43:15;3.10;99.90
53599;DHT22;39485;45.702;11.364;2023-02-01T18:45:42;3.10;99.90
53599;DHT22;39485;45.702;11.364;2023-02-01T18:48:12;3.10;99.90
53599;DHT22;39485;45.702;11.364;2023-02-01T18:50:41;3.10;99.90
53599;DHT22;39485;45.702;11.364;2023-02-01T18:53:16;3.00;99.90
53599;DHT22;39485;45.702;11.364;2023-02-01T18:55:45;3.00;99.90
53599;DHT22;39485;45.702;11.364;2023-02-01T18:58:13;3.00;99.90
53599;DHT22;39485;45.702;11.364;2023-02-01T19:00:40;3.00;99.90
53599;DHT22;39485;45.702;11.364;2023-02-01T19:03:06;3.00;99.90
53599;DHT22;39485;45.702;11.364;2023-02-01T19:05:32;3.00;99.90
53599;DHT22;39485;45.702;11.364;2023-02-01T19:07:58;3.00;99.90
53599;DHT22;39485;45.702;11.364;2023-02-01T19:10:24;2.90;99.90
53599;DHT22;39485;45.702;11.364;2023-02-01T19:12:51;2.90;99.90
53599;DHT22;39485;45.702;11.364;2023-02-01T19:15:17;2.90;99.90
53599;DHT22;39485;45.702;11.364;2023-02-01T19:17:48;2.90;99.90
53599;DHT22;39485;45.702;11.364;2023-02-01T19:20:17;2.90;99.90
53599;DHT22;39485;45.702;11.364;2023-02-01T19:22:43;2.90;99.90
53599;DHT22;39485;45.702;11.364;2023-02-01T19:25:18;2.90;99.90
53599;DHT22;39485;45.702;11.364;2023-02-01T19:27:44;2.80;99.90
53599;DHT22;39485;45.702;11.364;2023-02-01T19:30:11;2.80;99.90
53599;DHT22;39485;45.702;11.364;2023-02-01T19:32:37;2.80;99.90
53599;DHT22;39485;45.702;11.364;2023-02-01T19:35:04;2.70;99.90
53599;DHT22;39485;45.702;11.364;2023-02-01T19:37:30;2.70;99.90
53599;DHT22;39485;45.702;11.364;2023-02-01T19:39:56;2.60;99.90
53599;DHT22;39485;45.702;11.364;2023-02-01T19:42:24;2.60;99.90
53599;DHT22;39485;45.702;11.364;2023-02-01T19:44:50;2.60;99.90
53599;DHT22;39485;45.702;11.364;2023-02-01T19:47:16;2.50;99.90
53599;DHT22;39485;45.702;11.364;2023-02-01T19:49:42;2.50;99.90
53599;DHT22;39485;45.702;11.364;2023-02-01T19:52:08;2.50;99.90
53599;DHT22;39485;45.702;11.364;2023-02-01T19:54:33;2.40;99.90
53599;DHT22;39485;45.702;11.364;2023-02-01T19:56:59;2.40;99.90
53599;DHT22;39485;45.702;11.364;2023-02-01T19:59:25;2.40;99.90
53599;DHT22;39485;45.702;11.364;2023-02-01T20:01:51;2.40;99.90
53599;DHT22;39485;45.702;11.364;2023-02-01T20:04:17;2.30;99.90
53599;DHT22;39485;45.702;11.364;2023-02-01T20:06:45;2.30;99.90
53599;DHT22;39485;45.702;11.364;2023-02-01T20:09:28;2.30;99.90
53599;DHT22;39485;45.702;11.364;2023-02-01T20:11:54;2.30;99.90
53599;DHT22;39485;45.702;11.364;2023-02-01T20:14:21;2.30;99.90
53599;DHT22;39485;45.702;11.364;2023-02-01T20:16:49;2.30;99.90
53599;DHT22;39485;45.702;11.364;2023-02-01T20:19:15;2.30;99.90
53599;DHT22;39485;45.702;11.364;2023-02-01T20:21:41;2.30;99.90
53599;DHT22;39485;45.702;11.364;2023-02-01T20:24:09;2.30;99.90
53599;DHT22;39485;45.702;11.364;2023-02-01T20:26:35;2.30;99.90
53599;DHT22;39485;45.702;11.364;2023-02-01T20:29:01;2.20;99.90
53599;DHT22;39485;45.702;11.364;2023-02-01T20:31:27;2.20;99.90
53599;DHT22;39485;45.702;11.364;2023-02-01T20:33:58;2.20;99.90
53599;DHT22;39485;45.702;11.364;2023-02-01T20:36:25;2.20;99.90
53599;DHT22;39485;45.702;11.364;2023-02-01T20:38:54;2.20;99.90
53599;DHT22;39485;45.702;11.364;2023-02-01T20:41:21;2.20;99.90
53599;DHT22;39485;45.702;11.364;2023-02-01T20:43:47;2.10;99.90
53599;DHT22;39485;45.702;11.364;2023-02-01T20:46:13;2.10;99.90